Time;durP1;ratioP1;P1;durP2;ratioP2;P2;SDS_P1;SDS_P2;PMS_P1;PMS_P2;Temp;Humidity;BMP_temperature;BMP_pressure;BME280_temperature;BME280_humidity;BME280_pressure;Samples;Min_cycle;Max_cycle;Signal;HPM_P1;HPM_P2
2023/11/25 00:01:27;;;;;;;5.35;1.33;;;;;;;;;;5073571;28;20139;-60
2023/11/25 00:03:54;;;;;;;9.00;1.80;;;;;;;;;;5073143;28;20057;-60
2023/11/25 00:06:22;;;;;;;4.15;1.45;;;;;;;;;;5073299;28;20401;-60
2023/11/25 00:08:49;;;;;;;4.28;1.45;;;;;;;;;;5073282;28;20056;-60
2023/11/25 00:11:17;;;;;;;5.57;1.77;;;;;;;;;;5072951;28;20401;-60
2023/11/25 00:13:43;;;;;;;5.30;1.70;;;;;;;;;;5072849;28;20063;-60
2023/11/25 00:16:10;;;;;;;7.70;1.80;;;;;;;;;;5072984;28;20060;-60
2023/11/25 00:18:37;;;;;;;7.68;1.95;;;;;;;;;;5072785;28;20053;-60
2023/11/25 00:21:04;;;;;;;5.50;1.40;;;;;;;;;;5072621;28;20541;-59
2023/11/25 00:23:32;;;;;;;6.20;1.63;;;;;;;;;;5072890;28;20060;-60
2023/11/25 00:25:59;;;;;;;7.95;1.70;;;;;;;;;;5072343;28;20068;-60
2023/11/25 00:28:26;;;;;;;6.50;1.95;;;;;;;;;;5072262;28;20056;-60
2023/11/25 00:30:53;;;;;;;4.25;1.75;;;;;;;;;;5072776;28;20056;-59
2023/11/25 00:33:19;;;;;;;7.13;1.92;;;;;;;;;;5072130;28;20110;-60
2023/11/25 00:35:48;;;;;;;6.72;2.08;;;;;;;;;;5072384;28;20059;-59
2023/11/25 00:38:14;;;;;;;5.43;1.50;;;;;;;;;;5072370;28;20072;-59
2023/11/25 00:40:42;;;;;;;6.97;1.63;;;;;;;;;;5072450;28;20083;-60
2023/11/25 00:43:09;;;;;;;5.07;1.52;;;;;;;;;;5072056;28;20059;-60
2023/11/25 00:45:36;;;;;;;5.07;1.63;;;;;;;;;;5072138;28;20064;-60
2023/11/25 00:48:03;;;;;;;4.47;1.35;;;;;;;;;;5072402;28;20048;-60
2023/11/25 00:50:30;;;;;;;6.65;1.60;;;;;;;;;;5072131;28;20061;-60
2023/11/25 00:52:57;;;;;;;6.65;1.63;;;;;;;;;;5072190;28;20056;-60
2023/11/25 00:55:24;;;;;;;4.10;1.75;;;;;;;;;;5072514;28;20064;-60
2023/11/25 00:57:53;;;;;;;5.95;1.83;;;;;;;;;;5072451;28;20627;-60
2023/11/25 01:00:22;;;;;;;5.85;1.75;;;;;;;;;;5072041;28;20052;-60
2023/11/25 01:02:50;;;;;;;6.82;1.85;;;;;;;;;;5072296;28;20067;-59
2023/11/25 01:05:16;;;;;;;8.13;2.10;;;;;;;;;;5072198;28;20523;-60
2023/11/25 01:07:45;;;;;;;6.75;1.98;;;;;;;;;;5072218;28;20346;-60
2023/11/25 01:10:12;;;;;;;6.25;1.80;;;;;;;;;;5072028;28;20466;-60
2023/11/25 01:12:38;;;;;;;6.15;1.77;;;;;;;;;;5072197;28;20056;-60
2023/11/25 01:15:08;;;;;;;6.43;2.28;;;;;;;;;;5072165;28;20056;-60
2023/11/25 01:17:35;;;;;;;7.82;2.40;;;;;;;;;;5071768;28;20052;-60
2023/11/25 01:20:04;;;;;;;6.40;2.30;;;;;;;;;;5071796;28;20421;-59
2023/11/25 01:22:31;;;;;;;4.65;2.00;;;;;;;;;;5072303;28;20059;-60
2023/11/25 01:24:58;;;;;;;5.15;2.05;;;;;;;;;;5075107;28;20060;-60
2023/11/25 01:27:24;;;;;;;8.40;2.53;;;;;;;;;;5076251;28;20048;-60
2023/11/25 01:29:51;;;;;;;6.97;2.08;;;;;;;;;;5076086;28;20053;-60
2023/11/25 01:32:20;;;;;;;5.22;2.03;;;;;;;;;;5076374;28;20063;-60
2023/11/25 01:34:47;;;;;;;8.20;2.13;;;;;;;;;;5076437;28;20056;-59
2023/11/25 01:37:17;;;;;;;6.95;2.22;;;;;;;;;;5076405;28;20056;-64
2023/11/25 01:39:44;;;;;;;8.50;2.08;;;;;;;;;;5075809;28;20053;-60
2023/11/25 01:42:11;;;;;;;10.02;2.50;;;;;;;;;;5075750;28;20512;-60
2023/11/25 01:44:37;;;;;;;7.00;2.17;;;;;;;;;;5075985;28;20048;-60
2023/11/25 01:47:04;;;;;;;8.77;2.17;;;;;;;;;;5075895;28;20060;-60
2023/11/25 01:49:32;;;;;;;6.10;2.05;;;;;;;;;;5075440;28;20159;-60
2023/11/25 01:51:59;;;;;;;5.13;2.10;;;;;;;;;;5074151;28;20073;-59
2023/11/25 01:54:26;;;;;;;6.78;2.30;;;;;;;;;;5074660;28;20052;-60
2023/11/25 01:56:55;;;;;;;10.52;2.35;;;;;;;;;;5075858;28;20061;-60
2023/11/25 01:59:23;;;;;;;5.18;1.75;;;;;;;;;;5075717;28;20055;-60
2023/11/25 02:01:50;;;;;;;8.02;2.00;;;;;;;;;;5075744;28;20482;-60
2023/11/25 02:04:17;;;;;;;5.43;1.83;;;;;;;;;;5075718;28;20055;-60
2023/11/25 02:06:45;;;;;;;5.93;2.30;;;;;;;;;;5075323;28;20055;-60
2023/11/25 02:09:13;;;;;;;5.53;1.90;;;;;;;;;;5075705;28;20044;-59
2023/11/25 02:11:58;;;;;;;10.00;2.35;;;;;;;;;;5075786;28;20059;-60
2023/11/25 02:14:26;;;;;;;8.40;2.50;;;;;;;;;;5075354;28;20048;-60
2023/11/25 02:16:52;;;;;;;8.80;2.30;;;;;;;;;;5075699;28;20060;-60
2023/11/25 02:19:19;;;;;;;9.05;2.55;;;;;;;;;;5075122;28;20078;-60
2023/11/25 02:21:47;;;;;;;5.97;2.33;;;;;;;;;;5075168;28;20071;-60
2023/11/25 02:24:16;;;;;;;7.85;2.15;;;;;;;;;;5075039;28;20057;-61
2023/11/25 02:26:43;;;;;;;6.57;2.45;;;;;;;;;;5075138;28;20519;-60
2023/11/25 02:29:10;;;;;;;6.90;2.13;;;;;;;;;;5074973;28;20409;-60
2023/11/25 02:31:39;;;;;;;8.85;2.15;;;;;;;;;;5075417;28;20065;-60
2023/11/25 02:34:07;;;;;;;7.97;2.30;;;;;;;;;;5075071;28;20052;-59
2023/11/25 02:36:34;;;;;;;6.93;2.03;;;;;;;;;;5075162;28;20056;-59
2023/11/25 02:39:01;;;;;;;6.30;2.15;;;;;;;;;;5074673;28;20059;-60
2023/11/25 02:41:29;;;;;;;9.00;2.20;;;;;;;;;;5074886;28;20053;-60
2023/11/25 02:43:56;;;;;;;7.95;2.17;;;;;;;;;;5074968;28;20059;-59
2023/11/25 02:46:24;;;;;;;6.07;2.05;;;;;;;;;;5073101;28;20063;-60
2023/11/25 02:48:50;;;;;;;7.60;2.10;;;;;;;;;;5074690;28;20056;-60
2023/11/25 02:51:18;;;;;;;6.93;2.53;;;;;;;;;;5074752;28;20048;-60
2023/11/25 02:53:45;;;;;;;6.40;2.10;;;;;;;;;;5074442;28;20048;-60
2023/11/25 02:56:12;;;;;;;7.18;2.10;;;;;;;;;;5074371;28;20405;-60
2023/11/25 02:58:40;;;;;;;7.40;1.77;;;;;;;;;;5074486;28;20482;-60
2023/11/25 03:01:11;;;;;;;7.80;2.30;;;;;;;;;;5074455;28;20064;-59
2023/11/25 03:03:42;;;;;;;7.35;2.30;;;;;;;;;;5074660;28;20064;-60
2023/11/25 03:06:09;;;;;;;7.80;2.25;;;;;;;;;;5074654;28;20060;-60
2023/11/25 03:08:36;;;;;;;8.55;2.05;;;;;;;;;;5074397;28;20060;-59
2023/11/25 03:11:11;;;;;;;7.18;1.98;;;;;;;;;;5074003;28;20053;-60
2023/11/25 03:13:40;;;;;;;9.52;2.50;;;;;;;;;;5074245;28;20362;-60
2023/11/25 03:16:07;;;;;;;10.15;2.65;;;;;;;;;;5074225;28;20059;-60
2023/11/25 03:18:34;;;;;;;8.60;3.00;;;;;;;;;;5073917;28;20060;-60
2023/11/25 03:21:01;;;;;;;10.68;3.42;;;;;;;;;;5074022;28;20053;-59
2023/11/25 03:23:27;;;;;;;13.57;3.40;;;;;;;;;;5073834;28;20482;-59
2023/11/25 03:25:55;;;;;;;10.02;3.20;;;;;;;;;;5073723;28;20465;-60
2023/11/25 03:28:22;;;;;;;8.85;3.20;;;;;;;;;;5073927;28;20057;-59
2023/11/25 03:30:50;;;;;;;6.72;2.75;;;;;;;;;;5073532;28;20044;-59
2023/11/25 03:33:17;;;;;;;12.43;3.92;;;;;;;;;;5073766;28;20068;-59
2023/11/25 03:35:44;;;;;;;9.85;4.13;;;;;;;;;;5073690;28;20052;-59
2023/11/25 03:38:11;;;;;;;13.38;4.10;;;;;;;;;;5073806;28;20056;-59
2023/11/25 03:40:37;;;;;;;12.65;3.90;;;;;;;;;;5073568;28;20056;-59
2023/11/25 03:43:04;;;;;;;14.75;3.95;;;;;;;;;;5073327;28;20048;-59
2023/11/25 03:45:31;;;;;;;12.43;4.28;;;;;;;;;;5073269;28;20056;-59
2023/11/25 03:48:00;;;;;;;11.77;4.05;;;;;;;;;;5072714;28;20059;-59
2023/11/25 03:50:27;;;;;;;9.75;3.95;;;;;;;;;;5073669;28;20425;-59
2023/11/25 03:52:54;;;;;;;13.60;4.45;;;;;;;;;;5073046;28;20067;-59
2023/11/25 03:55:21;;;;;;;15.38;4.88;;;;;;;;;;5073278;28;20068;-59
2023/11/25 03:57:48;;;;;;;12.57;4.07;;;;;;;;;;5073334;28;20488;-59
2023/11/25 04:00:15;;;;;;;11.98;3.80;;;;;;;;;;5072791;28;20044;-59
2023/11/25 04:02:43;;;;;;;11.25;4.15;;;;;;;;;;5073290;28;20397;-59
2023/11/25 04:05:11;;;;;;;12.88;4.03;;;;;;;;;;5072944;28;20516;-59
2023/11/25 04:07:38;;;;;;;10.73;3.97;;;;;;;;;;5073037;28;20052;-59
2023/11/25 04:10:12;;;;;;;12.73;3.90;;;;;;;;;;5072866;28;20056;-59
2023/11/25 04:12:39;;;;;;;15.70;4.65;;;;;;;;;;5073187;28;20393;-59
2023/11/25 04:15:08;;;;;;;11.98;4.32;;;;;;;;;;5073091;28;20056;-59
2023/11/25 04:17:36;;;;;;;13.10;3.90;;;;;;;;;;5072801;28;20515;-59
2023/11/25 04:20:03;;;;;;;14.32;4.65;;;;;;;;;;5072725;28;20504;-59
2023/11/25 04:22:31;;;;;;;12.95;3.95;;;;;;;;;;5073112;28;20056;-59
2023/11/25 04:24:58;;;;;;;13.63;4.40;;;;;;;;;;5072912;28;20048;-59
2023/11/25 04:27:29;;;;;;;12.60;4.30;;;;;;;;;;5073180;28;20052;-59
2023/11/25 04:29:56;;;;;;;12.07;4.00;;;;;;;;;;5072529;28;20123;-59
2023/11/25 04:32:23;;;;;;;11.02;3.97;;;;;;;;;;5073010;28;20055;-60
2023/11/25 04:34:50;;;;;;;10.35;3.72;;;;;;;;;;5072229;28;20059;-60
2023/11/25 04:37:19;;;;;;;12.68;4.07;;;;;;;;;;5072778;28;20052;-59
2023/11/25 04:39:47;;;;;;;14.43;4.53;;;;;;;;;;5072437;28;20516;-59
2023/11/25 04:42:14;;;;;;;15.82;4.32;;;;;;;;;;5071984;28;20064;-59
2023/11/25 04:44:41;;;;;;;12.52;4.45;;;;;;;;;;5080362;28;20067;-59
2023/11/25 04:47:08;;;;;;;14.38;4.30;;;;;;;;;;5092860;28;20063;-59
2023/11/25 04:49:35;;;;;;;10.20;3.38;;;;;;;;;;5092753;28;20381;-59
2023/11/25 04:52:04;;;;;;;12.50;3.95;;;;;;;;;;5092816;28;20052;-59
2023/11/25 04:54:32;;;;;;;13.40;4.40;;;;;;;;;;5092883;28;20066;-59
2023/11/25 04:57:01;;;;;;;15.77;4.82;;;;;;;;;;5092727;28;20063;-59
2023/11/25 04:59:28;;;;;;;14.75;4.30;;;;;;;;;;5091594;28;20059;-59
2023/11/25 05:01:55;;;;;;;12.70;4.20;;;;;;;;;;5092429;28;20052;-59
2023/11/25 05:04:22;;;;;;;15.77;4.78;;;;;;;;;;5092708;28;20052;-59
2023/11/25 05:06:52;;;;;;;15.77;4.25;;;;;;;;;;5092643;28;20063;-59
2023/11/25 05:09:18;;;;;;;16.05;4.82;;;;;;;;;;5092663;28;20052;-59
2023/11/25 05:11:45;;;;;;;12.02;3.80;;;;;;;;;;5092510;28;20059;-59
2023/11/25 05:14:13;;;;;;;12.98;4.47;;;;;;;;;;5092181;28;20059;-59
2023/11/25 05:16:40;;;;;;;13.82;4.43;;;;;;;;;;5092724;28;20483;-59
2023/11/25 05:19:08;;;;;;;13.93;3.75;;;;;;;;;;5092412;28;20048;-59
2023/11/25 05:21:34;;;;;;;10.27;4.18;;;;;;;;;;5092428;28;20048;-59
2023/11/25 05:24:03;;;;;;;14.65;4.07;;;;;;;;;;5092071;28;20059;-59
2023/11/25 05:26:30;;;;;;;11.57;4.03;;;;;;;;;;5092524;28;20081;-59
2023/11/25 05:28:59;;;;;;;12.35;4.50;;;;;;;;;;5092471;28;20062;-59
2023/11/25 05:31:28;;;;;;;19.20;4.82;;;;;;;;;;5092356;28;20052;-59
2023/11/25 05:33:54;;;;;;;12.75;3.53;;;;;;;;;;5091990;28;20052;-59
2023/11/25 05:36:24;;;;;;;14.00;4.05;;;;;;;;;;5092130;28;20052;-59
2023/11/25 05:38:50;;;;;;;11.82;4.25;;;;;;;;;;5091832;28;20056;-59
2023/11/25 05:41:17;;;;;;;17.98;4.07;;;;;;;;;;5091499;28;20048;-59
2023/11/25 05:43:46;;;;;;;16.27;4.40;;;;;;;;;;5091891;28;20056;-60
2023/11/25 05:46:21;;;;;;;16.07;3.90;;;;;;;;;;5072221;28;20377;-60
2023/11/25 05:48:49;;;;;;;16.45;4.38;;;;;;;;;;5071996;28;20497;-59
2023/11/25 05:51:16;;;;;;;16.75;4.22;;;;;;;;;;5072086;28;20427;-59
2023/11/25 05:53:43;;;;;;;13.68;3.90;;;;;;;;;;5071789;28;20056;-59
2023/11/25 05:56:10;;;;;;;18.02;4.22;;;;;;;;;;5071699;28;20052;-59
2023/11/25 05:58:36;;;;;;;13.43;3.97;;;;;;;;;;5071885;28;20063;-59
2023/11/25 06:01:04;;;;;;;14.23;3.80;;;;;;;;;;5071704;28;20055;-59
2023/11/25 06:03:31;;;;;;;19.25;4.25;;;;;;;;;;5071497;28;20057;-59
2023/11/25 06:05:59;;;;;;;17.35;4.05;;;;;;;;;;5071884;28;20056;-60
2023/11/25 06:08:25;;;;;;;15.07;4.05;;;;;;;;;;5071624;28;20081;-59
2023/11/25 06:10:54;;;;;;;14.18;4.18;;;;;;;;;;5073975;28;20053;-59
2023/11/25 06:13:20;;;;;;;11.75;3.40;;;;;;;;;;5074964;28;20052;-60
2023/11/25 06:15:47;;;;;;;12.45;4.22;;;;;;;;;;5075340;28;20059;-61
2023/11/25 06:18:17;;;;;;;14.95;4.93;;;;;;;;;;5075530;28;20409;-59
2023/11/25 06:20:45;;;;;;;17.00;4.38;;;;;;;;;;5074877;28;20052;-59
2023/11/25 06:23:13;;;;;;;16.30;4.38;;;;;;;;;;5075254;28;20056;-59
2023/11/25 06:25:42;;;;;;;20.38;4.95;;;;;;;;;;5074999;28;20052;-59
2023/11/25 06:28:10;;;;;;;17.63;4.05;;;;;;;;;;5073893;28;20386;-59
2023/11/25 06:30:39;;;;;;;16.95;5.35;;;;;;;;;;5075142;28;20044;-59
2023/11/25 06:33:06;;;;;;;13.50;3.85;;;;;;;;;;5075425;28;20064;-59
2023/11/25 06:35:33;;;;;;;13.07;4.10;;;;;;;;;;5075177;28;20056;-59
2023/11/25 06:38:00;;;;;;;15.60;3.55;;;;;;;;;;5075044;28;20386;-59
2023/11/25 06:40:28;;;;;;;12.80;3.75;;;;;;;;;;5074666;28;20059;-60
2023/11/25 06:42:55;;;;;;;16.02;3.67;;;;;;;;;;5074427;28;20095;-59
2023/11/25 06:45:22;;;;;;;12.93;3.72;;;;;;;;;;5074726;28;20076;-59
2023/11/25 06:47:50;;;;;;;12.38;3.30;;;;;;;;;;5074752;28;20064;-59
2023/11/25 06:50:18;;;;;;;12.35;3.85;;;;;;;;;;5074314;28;20049;-59
2023/11/25 06:52:45;;;;;;;15.55;3.60;;;;;;;;;;5074203;28;20079;-59
2023/11/25 06:55:11;;;;;;;12.55;3.67;;;;;;;;;;5074362;28;20059;-59
2023/11/25 06:57:40;;;;;;;13.60;3.17;;;;;;;;;;5074083;28;20059;-59
2023/11/25 07:00:08;;;;;;;13.73;3.78;;;;;;;;;;5074621;28;20049;-59
2023/11/25 07:02:35;;;;;;;13.20;3.67;;;;;;;;;;5073788;28;20048;-59
2023/11/25 07:05:02;;;;;;;13.27;3.83;;;;;;;;;;5074393;28;20524;-59
2023/11/25 07:07:29;;;;;;;12.95;3.90;;;;;;;;;;5074749;28;20359;-59
2023/11/25 07:09:56;;;;;;;13.43;3.70;;;;;;;;;;5074423;28;20063;-59
2023/11/25 07:12:23;;;;;;;9.77;3.03;;;;;;;;;;5074507;28;20374;-59
2023/11/25 07:14:52;;;;;;;10.20;3.40;;;;;;;;;;5074066;28;20052;-59
2023/11/25 07:17:19;;;;;;;8.95;3.35;;;;;;;;;;5073639;28;20049;-59
2023/11/25 07:19:45;;;;;;;10.13;3.47;;;;;;;;;;5074327;28;20048;-59
2023/11/25 07:22:12;;;;;;;16.52;4.45;;;;;;;;;;5073366;28;20067;-59
2023/11/25 07:24:40;;;;;;;12.35;4.07;;;;;;;;;;5073882;28;20512;-60
2023/11/25 07:27:07;;;;;;;10.30;3.47;;;;;;;;;;5073978;28;20079;-61
2023/11/25 07:29:35;;;;;;;12.65;3.92;;;;;;;;;;5073510;28;20044;-59
2023/11/25 07:32:04;;;;;;;16.75;4.60;;;;;;;;;;5073779;28;20048;-59
2023/11/25 07:34:31;;;;;;;13.90;3.38;;;;;;;;;;5073194;28;20470;-59
2023/11/25 07:36:58;;;;;;;11.02;3.78;;;;;;;;;;5073874;28;20056;-59
2023/11/25 07:39:29;;;;;;;12.40;3.58;;;;;;;;;;5073729;28;20424;-60
2023/11/25 07:41:57;;;;;;;11.20;3.30;;;;;;;;;;5073195;28;20044;-60
2023/11/25 07:44:26;;;;;;;12.27;3.83;;;;;;;;;;5073657;28;20055;-60
2023/11/25 07:46:53;;;;;;;12.57;4.10;;;;;;;;;;5073432;28;20056;-59
2023/11/25 07:49:22;;;;;;;9.32;4.15;;;;;;;;;;5073140;28;20041;-59
2023/11/25 07:51:49;;;;;;;12.57;3.60;;;;;;;;;;5073351;28;20045;-59
2023/11/25 07:54:16;;;;;;;9.63;3.45;;;;;;;;;;5073309;28;20056;-59
2023/11/25 07:56:43;;;;;;;8.48;3.38;;;;;;;;;;5073017;28;20052;-59
2023/11/25 07:59:10;;;;;;;9.55;3.10;;;;;;;;;;5072945;28;20049;-59
2023/11/25 08:01:37;;;;;;;14.50;4.38;;;;;;;;;;5072961;28;20155;-59
2023/11/25 08:04:04;;;;;;;10.52;3.95;;;;;;;;;;5072760;28;20052;-59
2023/11/25 08:06:32;;;;;;;11.50;3.10;;;;;;;;;;5073079;28;20071;-59
2023/11/25 08:08:59;;;;;;;9.13;2.95;;;;;;;;;;5072893;28;20052;-59
2023/11/25 08:11:27;;;;;;;12.85;3.60;;;;;;;;;;5072935;28;20093;-59
2023/11/25 08:13:54;;;;;;;7.90;3.20;;;;;;;;;;5072925;28;20163;-59
2023/11/25 08:16:21;;;;;;;11.02;4.32;;;;;;;;;;5072678;28;20055;-58
2023/11/25 08:18:48;;;;;;;11.77;4.55;;;;;;;;;;5072811;28;20063;-59
2023/11/25 08:21:15;;;;;;;12.82;4.38;;;;;;;;;;5072689;28;20045;-59
2023/11/25 08:23:44;;;;;;;11.82;4.75;;;;;;;;;;5072438;28;20504;-59
2023/11/25 08:26:17;;;;;;;13.25;5.43;;;;;;;;;;5072859;28;20059;-59
2023/11/25 08:28:44;;;;;;;18.08;7.43;;;;;;;;;;5072616;28;20052;-59
2023/11/25 08:31:11;;;;;;;18.60;7.93;;;;;;;;;;5072582;28;20131;-59
2023/11/25 08:33:40;;;;;;;16.45;7.43;;;;;;;;;;5072082;28;20053;-59
2023/11/25 08:36:07;;;;;;;16.95;8.23;;;;;;;;;;5071880;28;20068;-59
2023/11/25 08:38:34;;;;;;;19.42;7.72;;;;;;;;;;5071974;28;20079;-59
2023/11/25 08:41:04;;;;;;;18.70;7.15;;;;;;;;;;5071885;28;20135;-59
2023/11/25 08:43:32;;;;;;;16.73;7.53;;;;;;;;;;5072390;28;20417;-59
2023/11/25 08:46:00;;;;;;;15.95;7.57;;;;;;;;;;5072180;28;20063;-59
2023/11/25 08:48:26;;;;;;;17.00;7.00;;;;;;;;;;5072225;28;20413;-59
2023/11/25 08:50:53;;;;;;;18.10;7.72;;;;;;;;;;5072137;28;20060;-59
2023/11/25 08:53:22;;;;;;;14.70;6.88;;;;;;;;;;5072001;28;20053;-59
2023/11/25 08:55:49;;;;;;;12.30;6.28;;;;;;;;;;5072362;28;20056;-58
2023/11/25 08:58:17;;;;;;;14.82;5.88;;;;;;;;;;5072137;28;20508;-59
2023/11/25 09:00:44;;;;;;;14.07;5.47;;;;;;;;;;5071868;28;20059;-59
2023/11/25 09:03:14;;;;;;;16.52;5.50;;;;;;;;;;5071639;28;20409;-59
2023/11/25 09:05:41;;;;;;;15.38;5.70;;;;;;;;;;5071987;28;20052;-59
2023/11/25 09:08:09;;;;;;;12.88;6.10;;;;;;;;;;5071557;28;20056;-58
2023/11/25 09:10:36;;;;;;;13.02;5.63;;;;;;;;;;5071665;28;20089;-59
2023/11/25 09:13:03;;;;;;;14.40;5.57;;;;;;;;;;5071767;28;20068;-59
2023/11/25 09:15:31;;;;;;;12.00;5.30;;;;;;;;;;5071446;28;20059;-59
2023/11/25 09:18:00;;;;;;;8.85;4.70;;;;;;;;;;5072184;28;20059;-59
2023/11/25 09:20:28;;;;;;;8.20;4.27;;;;;;;;;;5071662;28;20063;-59
2023/11/25 09:22:54;;;;;;;7.43;3.90;;;;;;;;;;5072007;28;20060;-59
2023/11/25 09:25:21;;;;;;;10.35;4.65;;;;;;;;;;5071617;28;20052;-59
2023/11/25 09:27:50;;;;;;;10.40;4.93;;;;;;;;;;5071966;28;20354;-59
2023/11/25 09:30:18;;;;;;;9.68;5.03;;;;;;;;;;5071486;28;20049;-59
2023/11/25 09:32:46;;;;;;;10.27;5.28;;;;;;;;;;5071752;28;20053;-59
2023/11/25 09:35:14;;;;;;;10.50;4.88;;;;;;;;;;5071453;28;20151;-60
2023/11/25 09:37:42;;;;;;;11.13;5.28;;;;;;;;;;5071775;28;20079;-59
2023/11/25 09:40:14;;;;;;;10.07;5.10;;;;;;;;;;5071325;28;20059;-59
2023/11/25 09:42:42;;;;;;;11.13;5.90;;;;;;;;;;5070934;28;20132;-59
2023/11/25 09:45:10;;;;;;;11.18;5.82;;;;;;;;;;5073074;28;20066;-59
2023/11/25 09:47:37;;;;;;;9.45;5.35;;;;;;;;;;5075595;28;20063;-59
2023/11/25 09:50:08;;;;;;;10.50;5.50;;;;;;;;;;5075303;28;20052;-59
2023/11/25 09:52:38;;;;;;;12.38;5.60;;;;;;;;;;5075336;28;20053;-59
2023/11/25 09:55:05;;;;;;;9.13;5.97;;;;;;;;;;5075168;28;20059;-59
2023/11/25 09:57:33;;;;;;;10.80;5.50;;;;;;;;;;5074979;28;20489;-59
2023/11/25 10:00:00;;;;;;;12.13;4.97;;;;;;;;;;5075297;28;20497;-59
2023/11/25 10:02:28;;;;;;;8.50;4.97;;;;;;;;;;5075295;28;20485;-59
2023/11/25 10:04:56;;;;;;;9.00;4.65;;;;;;;;;;5075186;28;20059;-59
2023/11/25 10:07:24;;;;;;;10.50;4.55;;;;;;;;;;5075561;28;20063;-59
2023/11/25 10:09:51;;;;;;;9.95;4.35;;;;;;;;;;5075369;28;20064;-59
2023/11/25 10:12:18;;;;;;;7.55;4.15;;;;;;;;;;5075192;28;20048;-59
2023/11/25 10:14:46;;;;;;;8.38;4.20;;;;;;;;;;5075074;28;20064;-59
2023/11/25 10:17:19;;;;;;;8.05;4.20;;;;;;;;;;5075389;28;20060;-59
2023/11/25 10:19:46;;;;;;;8.05;4.80;;;;;;;;;;5074807;28;20056;-60
2023/11/25 10:22:13;;;;;;;9.38;4.28;;;;;;;;;;5075320;28;20127;-59
2023/11/25 10:24:47;;;;;;;10.15;5.45;;;;;;;;;;5074890;28;20052;-59
2023/11/25 10:27:13;;;;;;;12.02;5.60;;;;;;;;;;5074968;28;20052;-59
2023/11/25 10:29:40;;;;;;;6.70;4.47;;;;;;;;;;5074423;28;20075;-59
2023/11/25 10:32:08;;;;;;;8.23;5.00;;;;;;;;;;5074863;28;20056;-59
2023/11/25 10:34:36;;;;;;;6.53;3.97;;;;;;;;;;5073107;28;20063;-59
2023/11/25 10:37:04;;;;;;;8.40;4.60;;;;;;;;;;5074195;28;20059;-59
2023/11/25 10:39:32;;;;;;;8.57;4.22;;;;;;;;;;5074649;28;20063;-60
2023/11/25 10:42:02;;;;;;;5.78;3.50;;;;;;;;;;5074510;28;20056;-59
2023/11/25 10:44:29;;;;;;;4.38;2.55;;;;;;;;;;5074597;28;20061;-59
2023/11/25 10:46:57;;;;;;;5.97;2.88;;;;;;;;;;5074729;28;20485;-59
2023/11/25 10:49:24;;;;;;;4.57;2.10;;;;;;;;;;5074887;28;20409;-60
2023/11/25 10:51:52;;;;;;;6.30;2.60;;;;;;;;;;5074770;28;20174;-60
2023/11/25 10:54:26;;;;;;;5.63;2.45;;;;;;;;;;5074071;28;20156;-58
2023/11/25 10:56:53;;;;;;;8.23;3.10;;;;;;;;;;5073074;28;20056;-59
2023/11/25 10:59:25;;;;;;;5.25;2.67;;;;;;;;;;5074073;28;20420;-59
2023/11/25 11:01:55;;;;;;;6.03;2.80;;;;;;;;;;5074568;28;20063;-59
2023/11/25 11:04:25;;;;;;;6.47;3.38;;;;;;;;;;5074077;28;20071;-59
2023/11/25 11:06:54;;;;;;;7.15;3.20;;;;;;;;;;5074338;28;20377;-59
2023/11/25 11:09:22;;;;;;;5.57;3.80;;;;;;;;;;5074191;28;20520;-59
2023/11/25 11:11:51;;;;;;;6.50;3.50;;;;;;;;;;5074556;28;20059;-59
2023/11/25 11:14:20;;;;;;;7.88;3.50;;;;;;;;;;5074361;28;20063;-58
2023/11/25 11:16:51;;;;;;;8.32;3.90;;;;;;;;;;5073922;28;20052;-59
2023/11/25 11:19:20;;;;;;;12.55;4.95;;;;;;;;;;5073771;28;20053;-59
2023/11/25 11:21:50;;;;;;;8.60;4.57;;;;;;;;;;5073773;28;20052;-60
2023/11/25 11:24:19;;;;;;;10.38;4.95;;;;;;;;;;5073520;28;20055;-59
2023/11/25 11:26:51;;;;;;;8.73;4.60;;;;;;;;;;5074045;28;20144;-59
2023/11/25 11:29:22;;;;;;;9.23;5.10;;;;;;;;;;5073971;28;20057;-60
2023/11/25 11:31:58;;;;;;;10.77;4.80;;;;;;;;;;5074040;28;20093;-59
2023/11/25 11:34:26;;;;;;;10.15;4.80;;;;;;;;;;5073680;28;20400;-59
2023/11/25 11:36:52;;;;;;;8.13;3.92;;;;;;;;;;5073894;28;20071;-59
2023/11/25 11:39:31;;;;;;;9.18;4.00;;;;;;;;;;5073469;28;20413;-59
2023/11/25 11:41:58;;;;;;;9.18;4.18;;;;;;;;;;5072895;28;20053;-59
2023/11/25 11:44:25;;;;;;;8.15;3.20;;;;;;;;;;5079071;28;20048;-59
2023/11/25 11:46:52;;;;;;;7.38;3.78;;;;;;;;;;5093801;28;20052;-59
2023/11/25 11:49:20;;;;;;;8.13;3.63;;;;;;;;;;5093775;28;20075;-59
2023/11/25 11:52:00;;;;;;;6.63;3.40;;;;;;;;;;5093785;28;20052;-59
2023/11/25 11:54:28;;;;;;;8.13;3.10;;;;;;;;;;5093680;28;20410;-59
2023/11/25 11:57:02;;;;;;;6.47;2.97;;;;;;;;;;5093418;28;20495;-59
2023/11/25 11:59:47;;;;;;;7.40;2.95;;;;;;;;;;5093632;28;20404;-59
2023/11/25 12:02:14;;;;;;;7.28;2.70;;;;;;;;;;5093429;28;20469;-58
2023/11/25 12:04:42;;;;;;;6.38;3.00;;;;;;;;;;5093030;28;20409;-59
2023/11/25 12:07:09;;;;;;;7.22;2.95;;;;;;;;;;5093017;28;20059;-59
2023/11/25 12:09:36;;;;;;;8.23;3.13;;;;;;;;;;5091644;28;20048;-58
2023/11/25 12:12:03;;;;;;;7.45;2.80;;;;;;;;;;5093561;28;20476;-58
2023/11/25 12:14:30;;;;;;;8.27;2.65;;;;;;;;;;5092634;28;20063;-59
2023/11/25 12:16:57;;;;;;;8.00;2.95;;;;;;;;;;5093144;28;20405;-59
2023/11/25 12:19:25;;;;;;;7.80;2.90;;;;;;;;;;5091126;28;20059;-59
2023/11/25 12:21:53;;;;;;;8.02;2.85;;;;;;;;;;5093041;28;20059;-58
2023/11/25 12:24:20;;;;;;;8.32;2.80;;;;;;;;;;5092900;28;20059;-58
2023/11/25 12:26:50;;;;;;;6.95;2.42;;;;;;;;;;5092836;28;20061;-58
2023/11/25 12:29:18;;;;;;;8.38;2.70;;;;;;;;;;5093174;28;20055;-62
2023/11/25 12:31:45;;;;;;;8.93;2.88;;;;;;;;;;5093004;28;20056;-58
2023/11/25 12:34:12;;;;;;;7.70;2.60;;;;;;;;;;5092437;28;20052;-59
2023/11/25 12:36:38;;;;;;;6.78;2.78;;;;;;;;;;5093151;28;20059;-59
2023/11/25 12:39:11;;;;;;;9.80;2.80;;;;;;;;;;5092487;28;20174;-59
2023/11/25 12:41:39;;;;;;;7.15;3.05;;;;;;;;;;5092132;28;20060;-59
2023/11/25 12:44:09;;;;;;;7.47;2.50;;;;;;;;;;5092444;28;20055;-59
2023/11/25 12:46:37;;;;;;;5.65;3.15;;;;;;;;;;5093025;28;20051;-59
2023/11/25 12:49:20;;;;;;;8.77;2.70;;;;;;;;;;5092881;28;20059;-59
2023/11/25 12:51:47;;;;;;;4.38;2.20;;;;;;;;;;5092484;28;20058;-59
2023/11/25 12:54:15;;;;;;;7.40;2.70;;;;;;;;;;5092285;28;20066;-59
2023/11/25 12:56:42;;;;;;;6.30;2.88;;;;;;;;;;5092697;28;20066;-59
2023/11/25 12:59:09;;;;;;;7.95;2.50;;;;;;;;;;5092167;28;20052;-59
2023/11/25 13:01:36;;;;;;;8.98;2.60;;;;;;;;;;5092700;28;20355;-59
2023/11/25 13:04:04;;;;;;;7.28;2.20;;;;;;;;;;5092533;28;20048;-60
2023/11/25 13:06:31;;;;;;;6.07;2.53;;;;;;;;;;5092118;28;20060;-59
2023/11/25 13:08:57;;;;;;;6.75;2.05;;;;;;;;;;5092384;28;20055;-59
2023/11/25 13:11:26;;;;;;;8.82;2.35;;;;;;;;;;5092250;28;20056;-60
2023/11/25 13:13:52;;;;;;;7.45;2.10;;;;;;;;;;5091809;28;20066;-59
2023/11/25 13:16:19;;;;;;;6.43;2.22;;;;;;;;;;5092392;28;20059;-60
2023/11/25 13:18:49;;;;;;;4.72;1.88;;;;;;;;;;5091648;28;20048;-59
2023/11/25 13:21:16;;;;;;;3.00;1.60;;;;;;;;;;5091827;28;20067;-60
2023/11/25 13:23:42;;;;;;;5.22;1.85;;;;;;;;;;5091950;28;20408;-59
2023/11/25 13:26:09;;;;;;;6.28;1.60;;;;;;;;;;5092077;28;20056;-59
2023/11/25 13:28:38;;;;;;;4.45;1.70;;;;;;;;;;5092308;28;20385;-59
2023/11/25 13:31:05;;;;;;;3.75;1.45;;;;;;;;;;5092196;28;20052;-58
2023/11/25 13:33:34;;;;;;;3.50;1.25;;;;;;;;;;5091921;28;20062;-59
2023/11/25 13:36:01;;;;;;;6.43;1.80;;;;;;;;;;5092121;28;20472;-58
2023/11/25 13:38:27;;;;;;;4.38;1.80;;;;;;;;;;5092080;28;20051;-59
2023/11/25 13:40:54;;;;;;;4.07;1.52;;;;;;;;;;5091541;28;20059;-59
2023/11/25 13:43:21;;;;;;;4.88;2.15;;;;;;;;;;5090463;28;20079;-59
2023/11/25 13:45:50;;;;;;;7.07;2.05;;;;;;;;;;5091987;28;20408;-59
2023/11/25 13:48:17;;;;;;;3.80;1.90;;;;;;;;;;5092238;28;20067;-59
2023/11/25 13:50:44;;;;;;;5.72;1.90;;;;;;;;;;5092434;28;20059;-58
2023/11/25 13:53:12;;;;;;;7.22;1.80;;;;;;;;;;5091867;28;20052;-59
2023/11/25 13:55:44;;;;;;;5.35;2.00;;;;;;;;;;5091956;28;20055;-59
2023/11/25 13:58:11;;;;;;;7.40;2.13;;;;;;;;;;5091871;28;20485;-59
2023/11/25 14:00:38;;;;;;;6.65;2.63;;;;;;;;;;5092012;28;20047;-59
2023/11/25 14:03:07;;;;;;;6.63;1.90;;;;;;;;;;5091700;28;20075;-59
2023/11/25 14:05:36;;;;;;;9.40;2.42;;;;;;;;;;5091797;28;20055;-58
2023/11/25 14:08:03;;;;;;;7.22;2.28;;;;;;;;;;5091686;28;20452;-59
2023/11/25 14:10:31;;;;;;;7.43;2.50;;;;;;;;;;5091543;28;20063;-59
2023/11/25 14:12:58;;;;;;;9.35;3.10;;;;;;;;;;5091956;28;20515;-58
2023/11/25 14:15:25;;;;;;;7.80;2.85;;;;;;;;;;5091665;28;20053;-59
2023/11/25 14:17:52;;;;;;;7.28;2.28;;;;;;;;;;5091953;28;20412;-58
2023/11/25 14:20:21;;;;;;;9.10;3.05;;;;;;;;;;5091316;28;20492;-59
2023/11/25 14:22:48;;;;;;;5.95;2.38;;;;;;;;;;5091451;28;20055;-59
2023/11/25 14:25:16;;;;;;;6.75;2.30;;;;;;;;;;5091448;28;20044;-59
2023/11/25 14:27:43;;;;;;;7.63;2.50;;;;;;;;;;5091436;28;20056;-62
2023/11/25 14:30:10;;;;;;;6.97;2.67;;;;;;;;;;5091570;28;20056;-59
2023/11/25 14:32:37;;;;;;;10.90;3.05;;;;;;;;;;5095073;28;20048;-59
2023/11/25 14:35:07;;;;;;;8.93;2.58;;;;;;;;;;5095384;28;20059;-59
2023/11/25 14:37:35;;;;;;;8.75;2.60;;;;;;;;;;5095582;28;20079;-58
2023/11/25 14:40:02;;;;;;;8.80;3.08;;;;;;;;;;5094834;28;20063;-58
2023/11/25 14:42:31;;;;;;;7.35;2.38;;;;;;;;;;5094534;28;20067;-58